Rechercher aéroport 
image banner adimage banner adimage banner ad
image banner ad

5PA1 - Broadt Personal Use

Situé à Mainville, United States

ICAO - 5PA1, IATA -

Données fournies par Airmate  

Information générale

Coordonnées: N40°59'50" W76°23'2"
Élévation : 920 feet MSL.
Variation magnétique : -11° East
Voir autres Aéroports à Pennsylvania

Données opérationnelles

Special qualification required
Heure actuelle UTC:
Heure actuelle locale:
Météo à : KHZL - Hazleton Rgnl ( 33 km )
METAR: KHZL 152255Z AUTO 32004KT 10SM CLR 20/11 A2986 RMK AO2
Voir NOTAMs / SUP AIP / TFR affectant cet aéroport [VIEW]
Fréquences de communication: [VIEW]

Pistes:

Identifiant RWYQFULongueur (ft)Largeur (ft)SurfaceLDA (ft)
061600100GRASS
241600100GRASS

Coordonnées de l'aéroport

Adresse: Mainville United States

Vue satellite de 5PA1